This is the latest recevied weather packets stored in our database for station/object WB0OCV. If no packets are shown the sender has not sent any weather packets the latest 1 day(s).
| Time | Temp. | Humidity | Pressure | Rain* | Wind** | Luminosity | Snow |
|---|---|---|---|---|---|---|---|
| 1778070534 | 17.22° C | 79% | 1015.4 hPa | 0 mm | - | 111 W/m² | - |
| 1778066903 | 16.11° C | 83% | 1015.7 hPa | 0 mm | - | 99 W/m² | - |
| 1778065693 | 15.56° C | 85% | 1015.8 hPa | 0 mm | - | 88 W/m² | - |
| 1778063573 | 15° C | 88% | 1015.6 hPa | 0 mm | - | 39 W/m² | - |
| 1778062665 | 15° C | 89% | 1015.4 hPa | 0 mm | - | 33 W/m² | - |
| 1778061152 | 13.89° C | 91% | 1015.6 hPa | 0 mm | - | 13 W/m² | - |
| 1778060849 | 13.89° C | 91% | 1015.8 hPa | 0 mm | - | 8 W/m² | - |
| 1778060547 | 13.89° C | 92% | 1015.6 hPa | 0 mm | - | 5 W/m² | - |
| 1778060246 | 13.89° C | 92% | 1015.6 hPa | 0 mm | - | 3 W/m² | - |
| 1778058430 | 13.89° C | 92% | 1015.5 hPa | 0 mm | - | 0 W/m² | - |
| 1778057216 | 13.89° C | 93% | 1015.7 hPa | 0 mm | - | 0 W/m² | - |
| 1778056005 | 13.33° C | 93% | 1015.8 hPa | 0 mm | - | 0 W/m² | - |
| 1778055101 | 13.33° C | 93% | 1015.8 hPa | 0 mm | - | 0 W/m² | - |
| 1778054798 | 13.33° C | 94% | 1015.8 hPa | 0 mm | - | 0 W/m² | - |
| 1778053587 | 13.33° C | 94% | 1015.9 hPa | 0 mm | - | 0 W/m² | - |
| 1778053284 | 13.33° C | 94% | 1015.8 hPa | 0 mm | - | 0 W/m² | - |
| 1778052982 | 13.33° C | 94% | 1015.9 hPa | 0 mm | - | 0 W/m² | - |
| 1778052375 | 13.33° C | 94% | 1015.8 hPa | 0 mm | - | 0 W/m² | - |
| 1778052073 | 13.33° C | 94% | 1016 hPa | 0 mm | - | 0 W/m² | - |
| 1778051165 | 13.33° C | 94% | 1015.8 hPa | 0 mm | - | 0 W/m² | - |
| 1778050862 | 13.33° C | 94% | 1015.8 hPa | 0 mm | - | 0 W/m² | - |
| 1778050256 | 13.33° C | 94% | 1015.9 hPa | 0 mm | - | 0 W/m² | - |
| 1778049044 | 13.33° C | 93% | 1015.6 hPa | 0 mm | - | 0 W/m² | - |
| 1778048742 | 13.33° C | 93% | 1015.8 hPa | 0 mm | - | 0 W/m² | - |
| 1778048135 | 13.33° C | 93% | 1015.9 hPa | 0 mm | - | 0 W/m² | - |
* Rain latest hour (hover to see other rain measurements)
** Current wind speed in m/s (hover to see current wind gust speed)